Time;durP1;ratioP1;P1;durP2;ratioP2;P2;SDS_P1;SDS_P2;PMS_P1;PMS_P2;Temp;Humidity;BMP_temperature;BMP_pressure;BME280_temperature;BME280_humidity;BME280_pressure;Samples;Min_cycle;Max_cycle;Signal;HPM_P1;HPM_P2
2022/05/03 04:08:52;;;;;;;1.27;1.27;;;;;;;10.70;93.79;100276.56;6600855;26;20068;-89
2022/05/03 04:11:56;;;;;;;0.95;0.95;;;;;;;10.71;95.74;100278.28;6532345;27;33708;-88
2022/05/03 04:14:58;;;;;;;1.77;1.67;;;;;;;10.74;95.08;100280.59;6518989;26;33220;-88
2022/05/03 04:18:06;;;;;;;1.42;1.37;;;;;;;10.85;94.33;100283.69;6587061;27;33966;-88
2022/05/03 04:29:20;;;;;;;1.25;1.25;;;;;;;11.27;89.41;100278.75;6602976;26;20071;-87
2022/05/03 04:32:47;;;;;;;0.68;0.68;;;;;;;11.44;87.38;100284.78;6550074;27;32244;-87
2022/05/03 04:35:50;;;;;;;0.98;0.98;;;;;;;11.51;87.08;100291.94;6584631;27;33516;-88
2022/05/03 04:38:53;;;;;;;1.42;1.23;;;;;;;11.55;87.16;100287.84;6599480;26;33805;-87
2022/05/03 04:41:56;;;;;;;1.73;1.62;;;;;;;11.70;86.65;100289.69;6540179;27;32436;-88
2022/05/03 04:53:42;;;;;;;1.70;1.50;;;;;;;12.00;85.69;100296.75;6607899;26;20066;-88
2022/05/03 05:17:39;;;;;;;2.58;1.50;;;;;;;13.17;78.82;100287.50;6601151;26;20074;-88
2022/05/03 05:28:39;;;;;;;1.48;1.35;;;;;;;13.61;73.49;100286.34;6581839;27;33939;-88
2022/05/03 05:35:37;;;;;;;1.08;0.93;;;;;;;13.92;71.34;100285.84;6589234;27;34085;-87
2022/05/03 05:38:40;;;;;;;1.10;1.00;;;;;;;14.08;69.82;100287.38;6597339;26;34152;-88
2022/05/03 05:41:42;;;;;;;1.62;1.00;;;;;;;14.19;69.95;100289.50;6544638;26;33781;-88
2022/05/03 05:44:45;;;;;;;0.45;0.45;;;;;;;14.36;69.97;100291.81;6534692;26;32828;-87
2022/05/03 05:47:48;;;;;;;0.20;0.20;;;;;;;14.42;71.61;100291.87;6543127;26;32174;-87
2022/05/03 05:50:53;;;;;;;0.50;0.50;;;;;;;14.51;67.83;100289.81;6589879;27;35024;-88
2022/05/03 05:54:00;;;;;;;0.80;0.80;;;;;;;14.70;67.34;100286.28;6601136;26;34015;-89
2022/05/03 05:57:04;;;;;;;0.20;0.20;;;;;;;14.87;65.92;100283.19;6599812;26;34215;-87
2022/05/03 06:00:07;;;;;;;0.20;0.20;;;;;;;14.93;66.37;100285.88;6531608;27;32778;-87
2022/05/03 06:03:14;;;;;;;0.20;0.20;;;;;;;15.15;64.72;100285.66;6600611;26;35276;-87
2022/05/03 06:06:38;;;;;;;0.30;0.30;;;;;;;15.38;62.71;100279.78;6597402;26;33708;31
2022/05/03 06:13:43;;;;;;;0.73;0.73;;;;;;;15.74;63.60;100286.62;6599445;26;20069;-87
2022/05/03 06:25:24;;;;;;;0.20;0.20;;;;;;;16.35;59.34;100288.88;6580103;27;20087;-88
2022/05/03 06:28:28;;;;;;;0.10;0.10;;;;;;;16.52;57.68;100281.84;6559489;26;33678;-88
2022/05/03 06:35:33;;;;;;;0.30;0.30;;;;;;;16.67;57.62;100283.41;6601692;26;20057;-88
2022/05/03 06:38:36;;;;;;;0.50;0.50;;;;;;;17.02;55.50;100291.13;6561793;26;33553;-88
2022/05/03 06:41:39;;;;;;;0.43;0.43;;;;;;;16.94;55.15;100290.34;6579980;27;34962;-88
2022/05/03 06:44:43;;;;;;;0.20;0.20;;;;;;;17.09;55.55;100286.47;6608786;26;34064;-88
2022/05/03 06:47:48;;;;;;;2.05;1.55;;;;;;;17.22;53.58;100286.34;6564665;26;33436;-88
2022/05/03 06:50:51;;;;;;;0.35;0.32;;;;;;;17.35;54.57;100283.50;6538936;26;32453;-89
2022/05/03 06:53:56;;;;;;;0.10;0.10;;;;;;;17.55;53.81;100286.03;6542888;26;33404;-88
2022/05/03 06:56:59;;;;;;;0.15;0.15;;;;;;;17.72;52.94;100290.84;6538690;26;32220;-87
2022/05/03 07:00:05;;;;;;;0.10;0.10;;;;;;;17.79;53.54;100286.22;6530737;26;33792;-87
2022/05/03 07:03:08;;;;;;;0.10;0.10;;;;;;;17.94;51.91;100292.09;6527876;26;32433;-87
2022/05/03 07:06:11;;;;;;;0.10;0.10;;;;;;;18.06;51.90;100290.25;6536089;26;32247;-88
2022/05/03 07:09:17;;;;;;;0.20;0.20;;;;;;;18.08;50.83;100288.13;6590549;27;34498;-87
2022/05/03 07:12:20;;;;;;;0.10;0.10;;;;;;;18.35;50.65;100287.78;6608873;26;33821;-87
2022/05/03 07:15:24;;;;;;;0.40;0.40;;;;;;;18.48;51.33;100282.13;6557864;26;32385;-87
2022/05/03 07:25:11;;;;;;;0.22;0.22;;;;;;;18.97;49.41;100282.03;6597903;27;35189;-87
2022/05/03 07:28:14;;;;;;;0.35;0.35;;;;;;;19.19;47.68;100279.56;6544397;27;33613;-88
2022/05/03 07:31:27;;;;;;;0.20;0.20;;;;;;;19.31;47.00;100285.03;6637286;26;20071;-87
2022/05/03 07:34:30;;;;;;;0.10;0.10;;;;;;;19.47;46.77;100279.66;6645398;26;34339;-87
2022/05/03 07:37:34;;;;;;;0.22;0.22;;;;;;;19.57;44.94;100281.81;6593498;26;34142;-87
2022/05/03 07:40:38;;;;;;;0.30;0.30;;;;;;;19.72;44.91;100280.50;6530608;27;33351;-88
2022/05/03 07:43:43;;;;;;;0.28;0.28;;;;;;;19.90;44.85;100281.16;6551171;27;34620;-88
2022/05/03 07:46:45;;;;;;;0.20;0.20;;;;;;;20.12;44.44;100281.34;6547063;27;34012;-87
2022/05/03 07:49:49;;;;;;;0.30;0.30;;;;;;;20.07;43.19;100277.69;6546842;27;34161;-87
2022/05/03 07:52:56;;;;;;;0.10;0.10;;;;;;;20.12;42.35;100275.88;6547469;27;34211;-88
2022/05/03 07:55:58;;;;;;;0.22;0.22;;;;;;;20.15;42.21;100283.59;6527032;27;32373;-87
2022/05/03 07:59:02;;;;;;;0.10;0.10;;;;;;;20.07;42.63;100285.88;6546367;27;34037;-88
2022/05/03 08:02:05;;;;;;;0.10;0.10;;;;;;;20.16;42.33;100282.50;6531180;27;33052;-88
2022/05/03 08:05:10;;;;;;;0.40;0.40;;;;;;;20.33;41.79;100276.28;6519501;27;33417;-88
2022/05/03 08:08:13;;;;;;;0.43;0.43;;;;;;;20.48;41.99;100275.72;6523315;27;34422;-88
2022/05/03 08:11:18;;;;;;;0.10;0.10;;;;;;;20.75;40.98;100278.69;6521148;27;32654;-88
2022/05/03 08:14:21;;;;;;;0.73;0.30;;;;;;;20.78;40.84;100272.72;6524602;26;33686;-88
2022/05/03 08:17:27;;;;;;;0.15;0.15;;;;;;;21.04;42.72;100274.78;6523462;27;33684;-87
2022/05/03 08:20:29;;;;;;;0.20;0.20;;;;;;;21.06;39.73;100272.66;6521718;27;32899;-87
2022/05/03 08:23:35;;;;;;;0.30;0.30;;;;;;;21.21;39.95;100273.97;6522631;27;33729;-89
2022/05/03 08:26:38;;;;;;;0.10;0.10;;;;;;;21.18;39.45;100277.19;6520093;27;33357;-90
2022/05/03 08:29:42;;;;;;;0.10;0.10;;;;;;;21.54;40.89;100266.78;6540206;27;33801;-87
2022/05/03 08:32:44;;;;;;;0.40;0.40;;;;;;;21.78;40.07;100273.69;6526689;26;33841;-87
2022/05/03 08:48:11;;;;;;;0.15;0.15;;;;;;;22.05;36.91;100270.16;6545971;26;20080;-87
2022/05/03 08:55:17;;;;;;;0.10;0.10;;;;;;;22.30;37.14;100272.41;6574053;26;20057;-87
2022/05/03 08:58:42;;;;;;;0.00;0.00;;;;;;;22.10;36.46;100265.56;6581651;26;34105;-88
2022/05/03 09:01:45;;;;;;;0.10;0.10;;;;;;;22.04;36.16;100269.34;6582220;26;34117;-88
2022/05/03 09:04:48;;;;;;;0.32;0.32;;;;;;;22.51;37.24;100263.28;6581956;26;35255;-87
2022/05/03 09:07:52;;;;;;;0.05;0.05;;;;;;;22.74;36.09;100264.88;6573086;27;32441;-88
2022/05/03 09:10:55;;;;;;;0.00;0.00;;;;;;;22.57;34.84;100264.16;6577004;26;32856;-88
2022/05/03 09:14:39;;;;;;;0.10;0.10;;;;;;;22.63;33.61;100266.69;6569134;26;34599;-88
2022/05/03 09:17:46;;;;;;;0.25;0.25;;;;;;;22.73;34.30;100262.41;6569494;26;33821;-87
2022/05/03 09:24:11;;;;;;;0.22;0.22;;;;;;;22.87;34.52;100253.47;6577432;27;32250;-88
2022/05/03 09:27:21;;;;;;;0.10;0.10;;;;;;;23.01;31.84;100247.53;6573709;26;34212;-87
2022/05/03 09:30:31;;;;;;;0.15;0.15;;;;;;;22.63;34.48;100254.88;6573761;26;32057;-88
2022/05/03 09:33:37;;;;;;;0.10;0.10;;;;;;;22.65;34.54;100247.22;6569532;26;32882;-88
2022/05/03 09:36:42;;;;;;;0.35;0.20;;;;;;;22.63;34.03;100249.41;6579138;26;34001;-88
2022/05/03 09:40:40;;;;;;;0.10;0.10;;;;;;;22.84;33.87;100237.53;6577092;26;32406;-88
2022/05/03 09:44:04;;;;;;;0.00;0.00;;;;;;;23.02;32.68;100240.94;6578476;27;34414;-88
2022/05/03 09:47:09;;;;;;;0.00;0.00;;;;;;;23.23;31.36;100234.53;6568605;26;32384;-88
2022/05/03 09:50:32;;;;;;;0.10;0.10;;;;;;;23.09;31.03;100238.81;6569302;26;35318;-87
2022/05/03 09:57:44;;;;;;;0.10;0.10;;;;;;;23.99;30.83;100234.06;6573680;27;20605;-88
2022/05/03 10:00:48;;;;;;;0.10;0.10;;;;;;;24.21;30.71;100236.59;6567649;26;32345;-87
2022/05/03 10:03:52;;;;;;;0.08;0.08;;;;;;;24.80;29.37;100231.72;6571194;26;33532;-88
2022/05/03 10:06:55;;;;;;;0.43;0.43;;;;;;;24.60;29.32;100222.38;6577731;26;34062;-88
2022/05/03 10:09:58;;;;;;;0.60;0.30;;;;;;;24.40;30.24;100216.84;6576392;27;32242;-88
2022/05/03 10:13:02;;;;;;;1.65;0.20;;;;;;;24.06;29.85;100211.81;6575161;27;32087;-88
2022/05/03 10:22:51;;;;;;;0.00;0.00;;;;;;;25.01;29.63;100205.84;6562682;26;264156;-88
2022/05/03 10:29:38;;;;;;;0.13;0.13;;;;;;;25.34;27.81;100198.06;6524221;27;34595;-87
2022/05/03 10:32:41;;;;;;;0.00;0.00;;;;;;;24.56;29.44;100203.94;6523920;27;34329;-88
2022/05/03 10:35:48;;;;;;;0.10;0.10;;;;;;;24.88;30.13;100201.72;6532892;27;33757;-88
2022/05/03 10:38:51;;;;;;;0.00;0.00;;;;;;;25.48;27.81;100196.37;6549887;27;34315;-88
2022/05/03 10:42:10;;;;;;;0.00;0.00;;;;;;;26.07;27.34;100194.72;6551361;27;33625;-88
2022/05/03 10:45:14;;;;;;;0.10;0.10;;;;;;;26.43;25.13;100188.94;6552015;27;34062;-89
2022/05/03 10:48:25;;;;;;;0.00;0.00;;;;;;;26.05;26.40;100191.41;6550646;27;34187;-88
2022/05/03 10:51:29;;;;;;;0.05;0.05;;;;;;;25.48;28.17;100193.63;6555823;27;33476;-88
2022/05/03 10:55:03;;;;;;;0.30;0.15;;;;;;;24.87;29.28;100189.06;6562448;27;32719;-88
2022/05/03 10:58:35;;;;;;;0.28;0.20;;;;;;;24.03;30.71;100182.09;6548718;27;34752;-87
2022/05/03 11:01:57;;;;;;;0.37;0.37;;;;;;;24.17;30.62;100191.47;6545616;27;33593;-88
2022/05/03 11:05:18;;;;;;;0.10;0.10;;;;;;;24.55;31.08;100188.53;6551608;27;35438;-93
2022/05/03 11:08:22;;;;;;;0.30;0.30;;;;;;;24.73;30.28;100187.97;6545620;27;33173;-88
2022/05/03 11:11:50;;;;;;;0.15;0.15;;;;;;;24.54;31.64;100186.84;6545579;27;32469;-88
2022/05/03 11:14:54;;;;;;;;;;;;;;;24.18;31.26;100193.13;6546732;27;33978;-88
2022/05/03 11:17:57;;;;;;;0.37;0.37;;;;;;;23.59;30.31;100189.91;6548065;27;34892;-87
2022/05/03 11:21:13;;;;;;;0.73;0.57;;;;;;;22.94;31.08;100186.53;6544012;27;35061;-88
2022/05/03 11:24:19;;;;;;;0.30;0.30;;;;;;;22.77;31.70;100190.25;6617715;26;33152;-87
2022/05/03 11:27:23;;;;;;;0.10;0.10;;;;;;;22.68;30.59;100180.03;6554710;27;33828;-88
2022/05/03 11:30:26;;;;;;;0.22;0.22;;;;;;;22.80;30.80;100181.47;6575682;27;33963;-88
2022/05/03 11:33:30;;;;;;;0.30;0.30;;;;;;;22.91;31.02;100184.31;6576976;27;33756;-88
2022/05/03 11:36:35;;;;;;;0.30;0.30;;;;;;;23.07;30.39;100184.16;6560864;27;32339;-88
2022/05/03 11:39:38;;;;;;;0.28;0.28;;;;;;;22.82;31.94;100182.06;6552288;27;33168;-87
2022/05/03 11:42:44;;;;;;;0.32;0.32;;;;;;;22.62;32.84;100182.72;6549549;27;32586;-88
2022/05/03 11:45:47;;;;;;;0.10;0.10;;;;;;;22.93;32.58;100171.94;6572868;27;34729;-88
2022/05/03 11:49:02;;;;;;;0.55;0.55;;;;;;;23.29;31.83;100175.78;6571221;27;33462;-88
2022/05/03 11:58:49;;;;;;;0.30;0.17;;;;;;;25.97;27.88;100169.94;6571411;27;34276;-92
2022/05/03 12:02:34;;;;;;;0.10;0.10;;;;;;;25.11;28.11;100174.69;6570376;27;33593;-91
2022/05/03 12:05:39;;;;;;;0.10;0.10;;;;;;;25.06;27.45;100180.19;6542520;27;32990;-88
2022/05/03 12:08:43;;;;;;;0.10;0.10;;;;;;;27.17;24.08;100173.09;6550004;27;32120;-88
2022/05/03 12:15:22;;;;;;;0.20;0.20;;;;;;;32.65;19.17;100159.84;6568792;27;33647;-88
2022/05/03 12:18:28;;;;;;;0.00;0.00;;;;;;;33.33;17.51;100151.56;6568716;27;33724;-88
2022/05/03 12:21:31;;;;;;;0.00;0.00;;;;;;;34.22;17.08;100150.66;6568118;27;34544;-88
2022/05/03 12:24:35;;;;;;;0.32;0.10;;;;;;;34.71;15.93;100157.25;6549654;27;34009;-88
2022/05/03 12:27:48;;;;;;;0.08;0.08;;;;;;;36.65;15.69;100155.78;6567591;27;33954;-88
2022/05/03 12:30:56;;;;;;;0.35;0.35;;;;;;;35.61;15.89;100149.91;6567886;27;33600;-88
2022/05/03 12:34:24;;;;;;;0.05;0.05;;;;;;;35.38;15.26;100152.34;6568541;27;33729;-89
2022/05/03 12:37:28;;;;;;;0.10;0.10;;;;;;;35.73;15.99;100151.06;6572393;27;34154;-89
2022/05/03 12:40:46;;;;;;;0.50;0.17;;;;;;;35.56;15.83;100149.31;6570744;27;34969;-90
2022/05/03 12:44:04;;;;;;;0.00;0.00;;;;;;;35.85;15.46;100134.22;6571047;27;34465;-88
2022/05/03 12:47:07;;;;;;;0.20;0.20;;;;;;;35.62;16.07;100142.31;6551711;27;33318;-87
2022/05/03 12:50:11;;;;;;;0.50;0.40;;;;;;;35.88;15.83;100145.53;6576548;27;33860;-87
2022/05/03 12:53:14;;;;;;;0.15;0.15;;;;;;;35.95;15.54;100133.72;6555939;27;33559;-88
2022/05/03 12:59:39;;;;;;;0.93;0.10;;;;;;;37.26;14.25;100126.47;6554803;27;33895;-88
2022/05/03 13:02:42;;;;;;;0.20;0.20;;;;;;;37.38;13.95;100131.16;6575173;27;35332;-89
2022/05/03 13:05:45;;;;;;;0.25;0.25;;;;;;;38.42;13.27;100120.22;6576192;27;34859;-89
2022/05/03 13:08:52;;;;;;;0.45;0.30;;;;;;;37.77;14.68;100120.03;6570375;27;33893;-89
2022/05/03 13:11:55;;;;;;;0.30;0.30;;;;;;;36.46;16.42;100124.78;6575400;27;33824;-89
2022/05/03 13:15:00;;;;;;;0.20;0.20;;;;;;;36.22;16.67;100115.31;6555235;27;33818;-88
2022/05/03 13:18:03;;;;;;;0.25;0.25;;;;;;;36.76;15.65;100109.16;6576081;27;32871;-89
2022/05/03 13:21:07;;;;;;;0.30;0.30;;;;;;;37.77;14.66;100123.66;6556292;26;32441;-89
2022/05/03 13:24:12;;;;;;;0.30;0.17;;;;;;;37.40;14.34;100120.38;6574768;27;34445;-89
2022/05/03 13:27:15;;;;;;;0.10;0.10;;;;;;;36.64;14.86;100123.28;6556076;27;33535;-88
2022/05/03 13:30:19;;;;;;;0.30;0.30;;;;;;;35.14;16.04;100127.16;6580315;27;34177;-90
2022/05/03 13:33:22;;;;;;;1.40;0.30;;;;;;;34.76;16.53;100119.88;6565046;27;34358;-88
2022/05/03 13:40:47;;;;;;;0.15;0.15;;;;;;;36.46;14.83;100107.94;6606981;27;20069;-89
2022/05/03 13:43:51;;;;;;;0.22;0.22;;;;;;;37.45;14.64;100106.06;6606143;27;35108;-88
2022/05/03 13:46:54;;;;;;;0.70;0.20;;;;;;;38.43;13.58;100099.31;6604734;27;34920;-89
2022/05/03 13:49:57;;;;;;;0.30;0.20;;;;;;;36.17;15.62;100103.53;6588220;26;34676;-88
2022/05/03 13:53:00;;;;;;;0.10;0.10;;;;;;;32.28;18.41;100106.44;6585209;27;34118;-89
2022/05/03 13:56:04;;;;;;;0.17;0.17;;;;;;;31.26;19.82;100108.78;6606861;27;34059;-89
2022/05/03 13:59:07;;;;;;;0.15;0.15;;;;;;;32.11;19.04;100114.00;6605338;27;34719;-87
2022/05/03 14:02:11;;;;;;;0.37;0.37;;;;;;;33.94;17.23;100100.09;6582935;27;32232;-86
2022/05/03 14:05:14;;;;;;;0.13;0.13;;;;;;;34.21;17.39;100107.12;6602099;27;34263;-86
2022/05/03 14:08:19;;;;;;;0.15;0.13;;;;;;;33.89;17.79;100108.69;6604942;27;34409;-85
2022/05/03 14:11:22;;;;;;;0.93;0.30;;;;;;;32.71;18.71;100102.75;6603677;27;34277;-85
2022/05/03 14:14:25;;;;;;;0.30;0.30;;;;;;;31.38;18.82;100107.03;6603057;27;33935;-86
2022/05/03 14:17:28;;;;;;;0.98;0.50;;;;;;;29.92;20.59;100100.28;6583712;27;34274;-86
2022/05/03 14:20:32;;;;;;;0.60;0.50;;;;;;;29.19;23.58;100104.94;6583094;27;34052;-86
2022/05/03 14:23:36;;;;;;;0.20;0.20;;;;;;;28.43;22.46;100108.03;6606836;27;34123;-85
2022/05/03 14:26:39;;;;;;;0.20;0.20;;;;;;;28.13;23.37;100105.75;6614179;27;34192;-86
2022/05/03 14:29:42;;;;;;;0.20;0.15;;;;;;;27.94;22.17;100112.13;6611853;27;34091;-86
2022/05/03 14:32:47;;;;;;;1.00;0.77;;;;;;;26.75;26.85;100129.63;6603864;27;34045;-86
2022/05/03 14:35:50;;;;;;;0.30;0.30;;;;;;;26.19;28.10;100128.16;6582638;27;32308;-89
2022/05/03 14:38:53;;;;;;;0.20;0.20;;;;;;;26.04;28.46;100133.78;6603765;27;34055;-87
2022/05/03 14:42:17;;;;;;;0.20;0.17;;;;;;;26.23;28.56;100134.72;6602892;27;34038;-87
2022/05/03 14:45:21;;;;;;;0.10;0.10;;;;;;;26.32;28.46;100126.66;6603111;27;34239;-87
2022/05/03 14:48:24;;;;;;;0.20;0.20;;;;;;;25.43;29.33;100140.44;6603989;27;34104;-86
2022/05/03 14:51:27;;;;;;;0.15;0.15;;;;;;;24.77;29.77;100144.16;6587518;27;33157;-86
2022/05/03 14:54:30;;;;;;;0.30;0.30;;;;;;;24.18;31.84;100140.03;6605707;27;33739;-87
2022/05/03 15:04:26;;;;;;;0.30;0.30;;;;;;;22.86;33.31;100136.50;6606130;26;35178;31
2022/05/03 15:07:31;;;;;;;0.80;0.45;;;;;;;22.61;37.45;100145.41;6452115;27;33914;-88
2022/05/03 15:10:36;;;;;;;0.43;0.43;;;;;;;22.04;41.67;100143.22;6455197;27;32554;-87
2022/05/03 15:13:40;;;;;;;0.20;0.20;;;;;;;21.77;40.37;100153.38;6474527;27;34053;-87
2022/05/03 15:16:43;;;;;;;0.15;0.15;;;;;;;21.41;42.56;100150.19;6472226;27;34126;-87
2022/05/03 15:19:47;;;;;;;0.57;0.32;;;;;;;21.24;45.38;100164.75;6471645;27;33758;-87
2022/05/03 15:26:12;;;;;;;0.22;0.22;;;;;;;20.63;43.76;100166.59;6469884;27;33180;-87
2022/05/03 15:29:16;;;;;;;0.47;0.47;;;;;;;20.47;44.73;100160.00;6471284;27;32420;-86
2022/05/03 15:32:35;;;;;;;0.40;0.40;;;;;;;20.31;44.28;100158.94;6475267;27;33773;-86
2022/05/03 15:35:38;;;;;;;0.75;0.65;;;;;;;20.16;43.14;100159.50;6474377;27;34597;-87
2022/05/03 15:38:41;;;;;;;0.40;0.40;;;;;;;20.25;42.56;100153.63;6473304;27;34424;-87
2022/05/03 15:41:44;;;;;;;1.50;0.88;;;;;;;20.43;42.06;100152.56;6476337;27;34191;-87
2022/05/03 15:44:51;;;;;;;0.50;0.50;;;;;;;20.43;43.71;100156.13;6497065;27;31344;-87
2022/05/03 15:47:54;;;;;;;0.93;0.50;;;;;;;20.28;41.02;100153.16;6495781;27;35181;-86
2022/05/03 15:50:57;;;;;;;0.50;0.50;;;;;;;20.21;40.72;100155.19;6496354;27;34167;-86
2022/05/03 15:54:00;;;;;;;0.30;0.30;;;;;;;20.27;41.70;100157.78;6496771;27;34656;-87
2022/05/03 15:57:04;;;;;;;0.77;0.65;;;;;;;20.12;42.36;100158.34;6497833;27;34162;-88
2022/05/03 16:00:10;;;;;;;0.30;0.30;;;;;;;20.06;42.66;100167.50;6507499;27;33214;-87
